Flight Track Log - Related Links

Times and Time Zones

All times are in EDT time to prevent confusion due to time zone crossing. See the N904RB flight status page for this flight to view local times or setup timezone preferences in your user account.

Time Position Orientation Groundspeed Altitude Reporting Facility
EDT Latitude Longitude Course Direction KTS MPH feet Rate Location/Type
Sun 01:53:33 PM 41.8167 -87.7667 285° West 164 189 2,700  Level Chicago TRACON
Sun 01:54:33 PM 41.8000 -87.8167 246° West 188 216 3,000 182 Climbing Chicago TRACON
Sun 01:55:12 PM 41.7928 -87.8547 256° West 178 205 3,000 -59 Level Chicago Center
Sun 01:56:15 PM 41.7681 -87.9258 245° Southwest 196 226 2,900  Descending Chicago Center
Sun 01:57:17 PM 41.7378 -88.0094 244° Southwest 207 238 3,000  Climbing Chicago Center
Sun 01:58:00 PM 41.8413 -88.1399 285° West  Level FlightAware Approximate
Sun 01:58:19 PM 41.7264 -88.0781 257° West 203 234 2,900  Level Chicago Center
Sun 01:59:21 PM 41.7267 -88.1425 270° West 189 217 3,800 532 Climbing Chicago Center
Sun 02:00:23 PM 41.7369 -88.2028 283° West 178 205 4,000 242 Climbing Chicago Center
Sun 02:01:25 PM 41.7539 -88.2731 288° West 190 219 4,300 1,016 Climbing Chicago Center
Sun 02:02:27 PM 41.7706 -88.3428 288° West 175 201 6,100 1,548 Climbing Chicago Center
Sun 02:03:29 PM 41.7764 -88.3981 278° West 160 184 7,500 1,344 Climbing Chicago Center
Sun 02:04:32 PM 41.7728 -88.4531 265° West 151 174 8,900 1,210 Climbing Chicago Center
Sun 02:05:33 PM 41.7722 -88.5103 269° West 153 176 10,000 537 Climbing Chicago Center
Sun 02:06:35 PM 41.7683 -88.6025 267° West 203 234 10,000 48 Level Chicago Center
Sun 02:07:38 PM 41.7622 -88.6853 264° West 222 255 10,100 720 Climbing Chicago Center
Sun 02:08:40 PM 41.7586 -88.7617 266° West 212 244 11,500 1,210 Climbing Chicago Center
Sun 02:09:42 PM 41.7475 -88.8236 257° West 179 206 12,600 1,016 Climbing Chicago Center
Sun 02:10:44 PM 41.7292 -88.8883 249° West 184 212 13,600 968 Climbing Chicago Center
Sun 02:11:46 PM 41.7058 -88.9728 250° West 202 232 14,600 1,210 Climbing Chicago Center
Sun 02:12:48 PM 41.6908 -89.0353 252° West 185 213 16,100 1,210 Climbing Chicago Center
Sun 02:13:50 PM 41.6683 -89.0906 241° Southwest 171 197 17,100 823 Climbing Chicago Center
Sun 02:14:52 PM 41.6431 -89.1497 240° Southwest 182 209 17,800 726 Climbing Chicago Center
Sun 02:15:54 PM 41.6175 -89.2133 242° Southwest 194 223 18,600 968 Climbing Chicago Center
Sun 02:16:56 PM 41.5897 -89.2853 243° Southwest 182 209 19,800 968 Climbing Chicago Center
Sun 02:17:58 PM 41.5481 -89.3269 217° Southwest 191 220 20,600 629 Climbing Chicago Center
Sun 02:19:00 PM 41.5119 -89.3642 218° Southwest 188 216 21,100 624 Climbing Chicago Center
Sun 02:20:03 PM 41.4600 -89.4228 220° Southwest 204 235 21,900 432 Climbing Chicago Center
Sun 02:21:05 PM 41.4144 -89.4736 220° Southwest 213 245 22,000 48 Climbing Chicago Center
Sun 02:22:07 PM 41.3636 -89.5311 220° Southwest 236 272 22,000  Level Chicago Center
Sun 02:23:09 PM 41.3094 -89.5903 219° Southwest 251 289 22,000  Level Chicago Center
Sun 02:24:11 PM 41.2567 -89.6503 221° Southwest 251 289 22,000  Level Chicago Center
Sun 02:25:13 PM 41.2022 -89.7097 219° Southwest 253 291 22,000  Level Chicago Center
Sun 02:26:15 PM 41.1372 -89.7803 219° Southwest 254 292 22,000  Level Chicago Center
Sun 02:27:17 PM 41.0836 -89.8403 220° Southwest 254 292 22,000  Level Chicago Center
Sun 02:28:19 PM 41.0297 -89.8997 220° Southwest 255 293 22,000  Level Chicago Center
Sun 02:29:21 PM 40.9714 -89.9631 219° Southwest 254 292 22,000  Level Chicago Center
Sun 02:30:23 PM 40.9172 -90.0236 220° Southwest 256 295 22,000  Level Chicago Center
Sun 02:31:25 PM 40.8633 -90.0822 219° Southwest 254 292 22,000  Level Chicago Center
Sun 02:32:28 PM 40.8075 -90.1403 218° Southwest 255 293 22,000  Level Chicago Center
Sun 02:33:30 PM 40.7428 -90.2103 219° Southwest 253 291 22,000  Level Chicago Center
Sun 02:34:32 PM 40.6922 -90.2672 221° Southwest 259 298 22,000  Level Chicago Center
Sun 02:35:34 PM 40.6372 -90.3256 219° Southwest 256 295 22,000  Level Chicago Center
Sun 02:36:36 PM 40.5719 -90.3969 220° Southwest 256 295 22,000  Level Chicago Center
Sun 02:37:38 PM 40.5175 -90.4567 220° Southwest 256 295 22,000  Level Chicago Center
Sun 02:38:40 PM 40.4622 -90.5156 219° Southwest 257 296 22,000  Level Chicago Center
Sun 02:39:42 PM 40.4075 -90.5750 220° Southwest 257 296 22,000  Level Chicago Center
Sun 02:40:34 PM 40.3631 -90.6217 219° Southwest 253 291 22,000  Level Kansas City Center
Sun 02:41:35 PM 40.3075 -90.6803 219° Southwest 255 293 22,000  Level Kansas City Center
Sun 02:42:36 PM 40.2417 -90.7519 220° Southwest 256 295 22,000  Level Kansas City Center
Sun 02:43:40 PM 40.1867 -90.8106 219° Southwest 255 293 22,000  Level Kansas City Center
Sun 02:44:41 PM 40.1306 -90.8689 218° Southwest 257 296 22,000  Level Kansas City Center
Sun 02:45:42 PM 40.0750 -90.9281 219° Southwest 258 297 22,000  Level Kansas City Center
Sun 02:46:46 PM 40.0175 -90.9867 218° Southwest 259 298 22,000  Level Kansas City Center
Sun 02:47:46 PM 39.9628 -91.0461 220° Southwest 258 297 22,000  Level Kansas City Center
Sun 02:48:47 PM 39.9069 -91.1050 219° Southwest 258 297 22,000 -96 Level Kansas City Center
Sun 02:49:51 PM 39.8411 -91.1739 219° Southwest 257 296 21,800 -528 Descending Kansas City Center
Sun 02:50:52 PM 39.7822 -91.2361 219° Southwest 266 306 20,900 -829 Descending Kansas City Center
Sun 02:51:54 PM 39.7225 -91.2964 218° Southwest 282 325 20,100 -984 Descending Kansas City Center
Sun 02:52:54 PM 39.6578 -91.3636 219° Southwest 284 327 18,900 -1,113 Descending Kansas City Center
Sun 02:53:58 PM 39.5981 -91.4247 218° Southwest 279 321 17,800 -1,008 Descending Kansas City Center
Sun 02:54:59 PM 39.5283 -91.4983 219° Southwest 273 314 16,800 -984 Descending Kansas City Center
Sun 02:56:00 PM 39.4744 -91.5525 218° Southwest 268 308 15,800 -1,008 Descending Kansas City Center
Sun 02:57:04 PM 39.4200 -91.6094 219° Southwest 260 299 14,700 -1,056 Descending Kansas City Center
Sun 02:58:05 PM 39.3647 -91.6644 218° Southwest 254 292 13,600 -1,131 Descending Kansas City Center
Sun 02:59:06 PM 39.3081 -91.7228 219° Southwest 252 290 12,400 -1,056 Descending Kansas City Center
Sun 03:00:10 PM 39.2550 -91.7786 219° Southwest 250 288 11,400 -919 Descending Kansas City Center
Sun 03:01:10 PM 39.2014 -91.8322 218° Southwest 238 274 10,500 -1,289 Descending Kansas City Center
Sun 03:02:11 PM 39.1406 -91.8925 218° Southwest 231 266 8,800 -1,561 Descending Kansas City Center
Sun 03:03:13 PM 39.0961 -91.9475 224° Southwest 225 259 7,300 -1,200 Descending Kansas City Center
Sun 03:04:16 PM 39.0731 -92.0175 247° West 214 246 6,300 -629 Descending Kansas City Center
Sun 03:05:17 PM 39.0497 -92.0800 244° Southwest 200 230 6,000 -197 Descending Kansas City Center
Sun 03:06:18 PM 39.0250 -92.1422 243° Southwest 196 226 5,900 -624 Descending Kansas City Center
Sun 03:07:22 PM 38.9919 -92.2044 236° Southwest 208 239 4,700 -1,152 Descending Kansas City Center
Sun 03:08:23 PM 38.9342 -92.2239 195° South 216 249 3,500 -1,210 Descending Kansas City Center
Sun 03:09:26 PM 38.8781 -92.2342 188° South 209 241 2,200 -1,024 Descending Kansas City Center
Sun 03:10:26 PM 38.8294 -92.2406 186° South 191 220 1,400 -800 Descending Kansas City Center
Sun 03:12:00 PM 38.8167 -92.2167 237° Southwest  Level FlightAware Approximate
Sun 03:19:00 PM 38.8181 -92.2196 237° Southwest  Level Estimated

Login

Don't have an account? Register now (free) for customized features, flight alerts, and more!